Time;durP1;ratioP1;P1;durP2;ratioP2;P2;SDS_P1;SDS_P2;PMS_P1;PMS_P2;Temp;Humidity;BMP_temperature;BMP_pressure;BME280_temperature;BME280_humidity;BME280_pressure;Samples;Min_cycle;Max_cycle;Signal;HPM_P1;HPM_P2
2022/08/03 00:00:19;;;;;;;2.20;2.10;;;;;;;25.73;60.93;99277.59;5108391;28;20198;-67
2022/08/03 00:02:46;;;;;;;2.67;2.50;;;;;;;25.72;61.25;99292.53;5110010;28;20207;-67
2022/08/03 00:05:13;;;;;;;2.33;2.23;;;;;;;25.72;61.50;99282.03;5109537;28;20302;-67
2022/08/03 00:07:41;;;;;;;2.27;2.17;;;;;;;25.71;62.25;99284.81;5114117;28;20677;-67
2022/08/03 00:10:09;;;;;;;2.87;2.37;;;;;;;25.71;62.16;99280.41;5114480;28;20193;-67
2022/08/03 00:12:36;;;;;;;2.53;2.43;;;;;;;25.68;62.33;99288.56;5114049;28;20201;-67
2022/08/03 00:15:03;;;;;;;2.07;2.00;;;;;;;25.66;61.74;99298.38;5113433;28;20198;-67
2022/08/03 00:17:30;;;;;;;2.53;2.43;;;;;;;25.58;61.19;99290.41;5112513;28;20214;-67
2022/08/03 00:19:57;;;;;;;2.70;2.50;;;;;;;25.52;61.66;99285.72;5112303;28;20216;-67
2022/08/03 00:22:23;;;;;;;2.40;2.30;;;;;;;25.48;61.74;99289.56;5111746;28;20203;-66
2022/08/03 00:24:52;;;;;;;2.63;2.53;;;;;;;25.45;62.71;99281.97;5112625;28;20405;-67
2022/08/03 00:27:18;;;;;;;2.67;2.57;;;;;;;25.41;62.82;99280.59;5112216;28;20187;-66
2022/08/03 00:29:45;;;;;;;2.50;2.40;;;;;;;25.40;62.88;99286.81;5111863;28;20203;-67
2022/08/03 00:32:12;;;;;;;2.60;2.40;;;;;;;25.38;62.88;99279.09;5113682;28;20570;-67
2022/08/03 00:34:39;;;;;;;2.30;2.20;;;;;;;25.35;63.56;99278.56;5114043;28;20203;-67
2022/08/03 00:37:05;;;;;;;2.60;2.50;;;;;;;25.31;63.23;99280.63;5114040;28;20222;-67
2022/08/03 00:39:32;;;;;;;2.90;2.20;;;;;;;25.27;63.92;99281.88;5113667;28;20586;-67
2022/08/03 00:42:03;;;;;;;2.23;2.13;;;;;;;25.22;63.93;99288.53;5113839;28;20210;-67
2022/08/03 00:44:30;;;;;;;3.63;2.17;;;;;;;25.18;63.94;99297.63;5113845;28;20202;-67
2022/08/03 00:46:57;;;;;;;2.50;2.40;;;;;;;25.15;65.01;99303.16;5114250;28;20190;-67
2022/08/03 00:49:24;;;;;;;2.27;2.07;;;;;;;25.08;65.22;99289.78;5113760;28;20582;-67
2022/08/03 00:51:51;;;;;;;2.40;2.30;;;;;;;25.10;65.37;99290.50;5113458;28;20210;-66
2022/08/03 00:54:19;;;;;;;2.77;2.67;;;;;;;25.08;65.92;99293.25;5113735;28;20191;-67
2022/08/03 00:56:47;;;;;;;2.60;2.50;;;;;;;25.05;66.04;99287.44;5112668;28;20292;-66
2022/08/03 00:59:16;;;;;;;2.40;2.30;;;;;;;25.02;66.74;99292.97;5112978;28;20755;-67
2022/08/03 01:01:43;;;;;;;2.07;2.07;;;;;;;25.00;67.17;99287.06;5112187;28;20199;-67
2022/08/03 01:04:09;;;;;;;2.30;2.20;;;;;;;24.94;67.79;99288.41;5113483;28;20203;-67
2022/08/03 01:06:43;;;;;;;2.40;2.30;;;;;;;24.85;67.97;99284.00;5113234;28;20214;-67
2022/08/03 01:09:19;;;;;;;2.10;2.00;;;;;;;24.85;67.76;99297.13;5113525;28;20598;-67
2022/08/03 01:11:51;;;;;;;2.40;2.30;;;;;;;24.84;68.06;99298.13;5112674;28;20202;-66
2022/08/03 01:14:28;;;;;;;2.63;2.53;;;;;;;24.74;68.52;99294.63;5113051;28;20569;-66
2022/08/03 01:16:59;;;;;;;2.27;2.17;;;;;;;24.69;67.96;99288.97;5113033;28;20214;-66
2022/08/03 01:19:41;;;;;;;3.00;2.33;;;;;;;24.63;67.68;99297.38;5111989;28;20202;-66
2022/08/03 01:22:30;;;;;;;2.20;2.10;;;;;;;24.59;68.20;99305.66;5112709;28;20742;-67
2022/08/03 01:25:02;;;;;;;2.10;2.00;;;;;;;24.54;68.82;99298.19;5113101;28;20244;-66
2022/08/03 01:27:38;;;;;;;2.10;2.00;;;;;;;24.51;69.39;99298.47;5112878;28;20194;-67
2022/08/03 01:30:08;;;;;;;1.90;1.90;;;;;;;24.48;69.64;99298.75;5112843;28;20198;-66
2022/08/03 01:32:41;;;;;;;2.23;2.13;;;;;;;24.42;69.98;99289.66;5112935;28;20613;-66
2022/08/03 01:35:11;;;;;;;2.67;2.30;;;;;;;24.40;70.68;99290.72;5112734;28;20193;-66
2022/08/03 01:37:51;;;;;;;2.07;2.00;;;;;;;24.37;70.15;99288.38;5112759;28;20207;-67
2022/08/03 01:40:21;;;;;;;2.50;1.90;;;;;;;24.32;70.68;99290.59;5112444;28;20217;-67
2022/08/03 01:42:49;;;;;;;2.53;2.43;;;;;;;24.20;70.97;99279.38;5112705;28;20199;-66
2022/08/03 01:45:20;;;;;;;1.97;1.87;;;;;;;24.22;71.26;99285.34;5112796;28;20658;-66
2022/08/03 01:47:49;;;;;;;2.37;2.27;;;;;;;24.21;71.51;99288.06;5112657;28;20754;-67
2022/08/03 01:50:20;;;;;;;2.40;2.30;;;;;;;24.19;71.78;99287.41;5111899;28;20199;-67
2022/08/03 01:52:49;;;;;;;3.07;2.63;;;;;;;24.17;72.22;99284.09;5112680;28;20586;-67
2022/08/03 01:55:19;;;;;;;2.23;2.20;;;;;;;24.16;72.11;99282.44;5112238;28;20217;-67
2022/08/03 01:57:48;;;;;;;1.60;1.60;;;;;;;24.09;71.58;99270.78;5111817;28;20218;-67
2022/08/03 02:00:18;;;;;;;2.37;2.27;;;;;;;24.16;71.73;99291.13;5110180;28;20207;-66
2022/08/03 02:02:47;;;;;;;2.17;2.07;;;;;;;24.15;71.76;99286.84;5108761;28;20199;-67
2022/08/03 02:05:15;;;;;;;2.03;1.70;;;;;;;24.14;71.89;99284.34;5111567;28;20229;-66
2022/08/03 02:07:45;;;;;;;1.90;1.80;;;;;;;24.13;72.00;99280.09;5110849;28;20674;-67
2022/08/03 02:10:14;;;;;;;2.70;2.50;;;;;;;24.11;71.42;99285.41;5111073;28;20293;-66
2022/08/03 02:12:44;;;;;;;4.83;1.80;;;;;;;24.10;71.85;99289.00;5112474;28;20191;-66
2022/08/03 02:15:11;;;;;;;2.40;2.30;;;;;;;24.10;71.79;99294.25;5112092;28;20202;-67
2022/08/03 02:17:41;;;;;;;1.90;1.90;;;;;;;24.12;72.10;99299.38;5112400;28;20202;-66
2022/08/03 02:20:10;;;;;;;2.20;2.10;;;;;;;24.07;72.06;99277.97;5110313;28;20195;-66
2022/08/03 02:22:39;;;;;;;1.80;1.80;;;;;;;24.09;72.03;99297.00;5109860;28;20199;-67
2022/08/03 02:25:08;;;;;;;2.53;1.80;;;;;;;24.04;72.50;99290.34;5110159;28;20214;-67
2022/08/03 02:27:36;;;;;;;2.17;2.13;;;;;;;24.00;72.27;99294.22;5109258;28;20232;-67
2022/08/03 02:30:07;;;;;;;1.90;1.80;;;;;;;23.89;72.26;99281.22;5109667;28;20206;-66
2022/08/03 02:32:37;;;;;;;1.80;1.80;;;;;;;23.95;72.25;99293.78;5109717;28;20574;-67
2022/08/03 02:35:10;;;;;;;2.37;2.20;;;;;;;23.95;72.60;99291.16;5111118;28;20575;-67
2022/08/03 02:37:42;;;;;;;3.90;2.30;;;;;;;23.94;73.25;99299.16;5111663;28;20293;-67
2022/08/03 02:40:12;;;;;;;3.17;2.30;;;;;;;23.94;72.81;99299.97;5111364;28;20210;-67
2022/08/03 02:42:42;;;;;;;2.40;2.30;;;;;;;23.94;73.26;99299.97;5110257;28;20190;-67
2022/08/03 02:45:12;;;;;;;2.50;2.40;;;;;;;23.93;72.59;99302.72;5111493;28;20221;-66
2022/08/03 02:47:41;;;;;;;2.70;2.60;;;;;;;23.94;72.19;99305.19;5111199;28;20191;-67
2022/08/03 02:50:12;;;;;;;2.67;2.57;;;;;;;23.87;72.21;99290.19;5111275;28;20217;-67
2022/08/03 02:52:41;;;;;;;2.20;1.93;;;;;;;23.93;71.56;99298.31;5111037;28;20197;-66
2022/08/03 02:55:10;;;;;;;2.87;2.17;;;;;;;23.93;71.10;99303.56;5110563;28;20585;-67
2022/08/03 02:57:39;;;;;;;2.50;2.13;;;;;;;23.81;70.77;99293.34;5110291;28;20222;-66
2022/08/03 03:00:08;;;;;;;2.40;2.30;;;;;;;23.84;70.63;99303.53;5111065;28;20202;-66
2022/08/03 03:02:36;;;;;;;3.30;2.10;;;;;;;23.80;70.98;99310.81;5110816;27;20567;-66
2022/08/03 03:05:04;;;;;;;2.70;2.50;;;;;;;23.75;71.68;99309.56;5111494;28;20743;-67
2022/08/03 03:07:34;;;;;;;2.47;2.37;;;;;;;23.70;71.94;99307.34;5111392;28;20571;-67
2022/08/03 03:10:03;;;;;;;2.27;2.17;;;;;;;23.71;72.13;99309.00;5110579;28;20660;-67
2022/08/03 03:12:31;;;;;;;2.77;2.57;;;;;;;23.67;72.93;99309.38;5110641;28;20602;-67
2022/08/03 03:14:58;;;;;;;2.30;2.20;;;;;;;23.67;73.25;99301.53;5110849;28;20198;-67
2022/08/03 03:17:26;;;;;;;1.90;1.90;;;;;;;23.64;73.24;99301.78;5111233;28;20218;-67
2022/08/03 03:19:54;;;;;;;2.67;2.57;;;;;;;23.60;73.54;99301.22;5110982;28;20199;-67
2022/08/03 03:22:22;;;;;;;2.73;2.63;;;;;;;23.56;73.35;99315.50;5110871;28;20202;-67
2022/08/03 03:24:52;;;;;;;2.83;2.60;;;;;;;23.50;74.23;99322.09;5110988;28;20248;-66
2022/08/03 03:27:19;;;;;;;3.30;2.50;;;;;;;23.45;73.76;99323.47;5111197;28;20544;-67
2022/08/03 03:29:46;;;;;;;2.30;2.20;;;;;;;23.37;73.87;99318.81;5111045;28;20210;-66
2022/08/03 03:32:13;;;;;;;2.60;2.40;;;;;;;23.33;74.53;99313.97;5109906;28;20229;-67
2022/08/03 03:34:41;;;;;;;2.93;2.23;;;;;;;23.36;74.49;99313.75;5110937;28;20240;-67
2022/08/03 03:37:08;;;;;;;2.93;2.47;;;;;;;23.38;74.28;99323.13;5110956;28;20211;-67
2022/08/03 03:39:35;;;;;;;2.63;2.43;;;;;;;23.42;74.08;99335.03;5110215;28;20202;-67
2022/08/03 03:42:04;;;;;;;2.23;2.13;;;;;;;23.43;73.91;99346.28;5112261;28;20198;-67
2022/08/03 03:44:31;;;;;;;2.40;2.30;;;;;;;23.42;74.45;99336.81;5115133;28;20197;-67
2022/08/03 03:46:58;;;;;;;3.10;2.77;;;;;;;23.42;73.60;99349.88;5114576;28;20217;-67
2022/08/03 03:49:26;;;;;;;4.33;2.33;;;;;;;23.38;74.00;99337.97;5114884;28;20199;-66
2022/08/03 03:51:53;;;;;;;2.40;2.30;;;;;;;23.36;74.80;99339.91;5113589;28;20209;-67
2022/08/03 03:54:21;;;;;;;2.53;2.43;;;;;;;23.32;74.86;99343.72;5113593;28;20206;-67
2022/08/03 03:56:50;;;;;;;2.33;2.23;;;;;;;23.31;74.61;99336.81;5115001;28;20655;-67
2022/08/03 03:59:19;;;;;;;2.13;2.03;;;;;;;23.26;75.25;99339.00;5114719;28;20574;-66
2022/08/03 04:01:46;;;;;;;2.97;2.37;;;;;;;23.22;75.39;99348.06;5114527;28;20198;-67
2022/08/03 04:12:30;;;;;;;3.33;2.90;;;;;;;23.25;76.15;99353.03;5113868;28;20221;-67
2022/08/03 04:15:01;;;;;;;3.03;2.83;;;;;;;23.28;76.18;99355.41;5114392;28;20195;-67
2022/08/03 04:17:30;;;;;;;4.53;2.87;;;;;;;23.34;75.24;99362.72;5113117;28;20214;-67
2022/08/03 04:19:58;;;;;;;2.60;2.50;;;;;;;23.38;75.39;99364.16;5113231;28;20199;-67
2022/08/03 04:22:30;;;;;;;2.93;2.70;;;;;;;23.41;76.12;99353.44;5114023;28;20206;-67
2022/08/03 04:25:01;;;;;;;3.20;2.90;;;;;;;23.35;76.20;99338.25;5114128;28;20244;-67
2022/08/03 04:27:34;;;;;;;2.90;2.33;;;;;;;23.46;76.67;99361.72;5113883;28;20658;-67
2022/08/03 04:30:05;;;;;;;2.70;2.50;;;;;;;23.45;76.04;99360.09;5114098;28;20202;-67
2022/08/03 04:32:33;;;;;;;2.37;2.27;;;;;;;23.45;76.68;99367.94;5113880;28;20248;-67
2022/08/03 04:35:00;;;;;;;3.33;3.03;;;;;;;23.45;76.44;99367.94;5114079;28;20195;-67
2022/08/03 04:37:35;;;;;;;2.50;2.30;;;;;;;23.48;76.46;99379.00;5113680;28;20222;-66
2022/08/03 04:40:06;;;;;;;2.20;2.10;;;;;;;23.49;75.46;99377.16;5113791;28;20209;-67
2022/08/03 04:42:34;;;;;;;2.27;2.10;;;;;;;23.52;75.01;99376.94;5113539;28;20203;-67
2022/08/03 04:45:04;;;;;;;2.90;2.70;;;;;;;23.39;73.61;99360.56;5114152;28;20202;-67
2022/08/03 04:47:33;;;;;;;2.60;2.50;;;;;;;23.42;73.75;99376.88;5113625;28;20244;-67
2022/08/03 04:50:01;;;;;;;2.87;2.77;;;;;;;23.37;73.77;99379.00;5111824;28;20289;-67
2022/08/03 04:52:28;;;;;;;2.00;1.90;;;;;;;23.38;74.98;99385.06;5111381;28;20205;-67
2022/08/03 04:54:55;;;;;;;3.03;2.90;;;;;;;23.38;75.17;99395.53;5113914;28;20225;-67
2022/08/03 04:57:22;;;;;;;1.90;1.90;;;;;;;23.39;75.17;99381.50;5113525;28;20217;-67
2022/08/03 04:59:51;;;;;;;2.30;2.20;;;;;;;23.46;74.41;99386.13;5113663;28;20202;-67
2022/08/03 05:02:19;;;;;;;2.67;2.47;;;;;;;23.54;74.69;99385.47;5113546;28;20679;-67
2022/08/03 05:04:46;;;;;;;3.13;2.43;;;;;;;23.55;73.28;99387.16;5113103;28;20205;-66
2022/08/03 05:07:14;;;;;;;2.40;2.20;;;;;;;23.50;73.64;99381.47;5113164;28;20662;-67
2022/08/03 05:09:41;;;;;;;4.50;2.20;;;;;;;23.43;72.97;99377.69;5113291;28;20255;-66
2022/08/03 05:12:08;;;;;;;3.83;2.23;;;;;;;23.36;73.39;99384.38;5113536;28;20194;-67
2022/08/03 05:14:37;;;;;;;2.50;2.40;;;;;;;23.39;73.49;99387.53;5113303;28;20210;-67
2022/08/03 05:17:04;;;;;;;2.27;2.17;;;;;;;23.40;75.62;99388.41;5113380;28;20640;-67
2022/08/03 05:19:32;;;;;;;2.30;2.20;;;;;;;23.46;74.70;99393.13;5112895;28;20204;-66
2022/08/03 05:21:59;;;;;;;2.77;2.67;;;;;;;23.53;74.89;99396.91;5113127;28;20199;-67
2022/08/03 05:24:26;;;;;;;2.50;2.40;;;;;;;23.57;74.08;99395.69;5113251;28;20202;-67
2022/08/03 05:26:55;;;;;;;2.37;2.27;;;;;;;23.53;76.17;99394.28;5113118;28;20195;-67
2022/08/03 05:29:22;;;;;;;2.30;2.20;;;;;;;23.64;75.91;99401.25;5110257;28;20199;-67
2022/08/03 05:31:49;;;;;;;2.57;2.47;;;;;;;23.77;74.95;99401.88;5107856;28;20198;-67
2022/08/03 05:34:16;;;;;;;2.37;2.27;;;;;;;23.86;73.83;99416.81;5111998;28;20666;-67
2022/08/03 05:36:44;;;;;;;2.67;2.53;;;;;;;23.93;73.88;99413.53;5112602;28;20210;-67
2022/08/03 05:39:11;;;;;;;2.83;2.73;;;;;;;24.08;73.79;99415.81;5112328;28;20260;-67
2022/08/03 05:41:38;;;;;;;2.40;2.30;;;;;;;24.18;73.21;99408.84;5110372;27;20206;-66
2022/08/03 05:44:05;;;;;;;2.47;2.27;;;;;;;24.32;73.27;99413.75;5112376;28;20202;-67
2022/08/03 05:46:32;;;;;;;2.37;2.27;;;;;;;24.48;72.68;99408.81;5109902;28;20195;-67
2022/08/03 05:48:58;;;;;;;2.40;2.30;;;;;;;24.69;74.48;99401.69;5111505;28;20270;-67
2022/08/03 05:51:26;;;;;;;2.40;2.30;;;;;;;25.04;70.75;99414.34;5111683;28;20202;-67
2022/08/03 05:53:54;;;;;;;2.83;2.33;;;;;;;25.38;70.03;99420.00;5111654;28;20198;-68
2022/08/03 05:56:24;;;;;;;2.20;2.10;;;;;;;25.63;69.78;99429.94;5108907;28;20202;-68
2022/08/03 05:58:51;;;;;;;2.00;2.00;;;;;;;25.80;67.59;99425.75;5110004;28;20279;-68
2022/08/03 06:01:20;;;;;;;1.70;1.70;;;;;;;25.93;64.83;99427.13;5110866;28;20674;-69
2022/08/03 06:03:47;;;;;;;2.10;2.00;;;;;;;25.94;63.19;99431.41;5111968;28;20207;-68
2022/08/03 06:06:14;;;;;;;1.73;1.63;;;;;;;25.91;64.77;99415.91;5111535;27;20227;-67
2022/08/03 06:08:42;;;;;;;1.50;1.37;;;;;;;26.03;64.40;99411.31;5111792;28;20199;-67
2022/08/03 06:11:10;;;;;;;1.90;1.80;;;;;;;26.14;65.11;99424.25;5112082;28;20199;-68
2022/08/03 06:13:38;;;;;;;1.60;1.60;;;;;;;26.27;65.03;99429.25;5110966;28;20206;-68
2022/08/03 06:16:05;;;;;;;1.97;1.87;;;;;;;26.44;63.99;99431.09;5112582;28;20570;-67
2022/08/03 06:18:32;;;;;;;1.77;1.77;;;;;;;26.65;62.53;99431.69;5111700;28;20227;-67
2022/08/03 06:20:58;;;;;;;6.63;1.90;;;;;;;26.80;62.26;99430.19;5107303;28;20207;-68
2022/08/03 06:23:25;;;;;;;3.53;2.03;;;;;;;26.97;60.92;99433.84;5110282;28;21703;-67
2022/08/03 06:25:52;;;;;;;2.10;2.00;;;;;;;27.08;60.36;99442.34;5109981;28;20203;-67
2022/08/03 06:28:21;;;;;;;1.90;1.80;;;;;;;27.11;59.39;99438.59;5110438;28;20667;-67
2022/08/03 06:30:47;;;;;;;2.70;1.90;;;;;;;27.15;60.43;99445.22;5110646;28;20654;-67
2022/08/03 06:33:15;;;;;;;1.87;1.77;;;;;;;27.20;59.54;99439.50;5110924;28;20202;-67
2022/08/03 06:35:42;;;;;;;2.07;1.97;;;;;;;27.24;59.38;99436.41;5110202;28;20198;-67
2022/08/03 06:38:09;;;;;;;1.73;1.63;;;;;;;27.31;57.82;99437.47;5110524;28;20214;-67
2022/08/03 06:40:38;;;;;;;1.97;1.83;;;;;;;27.39;58.82;99439.34;5110798;28;20209;-66
2022/08/03 06:43:06;;;;;;;1.57;1.57;;;;;;;27.36;55.84;99445.75;5108121;28;20206;-68
2022/08/03 06:45:35;;;;;;;1.70;1.60;;;;;;;27.39;56.23;99444.59;5110354;28;20717;-67
2022/08/03 06:48:03;;;;;;;4.17;2.17;;;;;;;27.44;57.71;99435.28;5110051;28;20195;-68
2022/08/03 06:50:31;;;;;;;1.70;1.63;;;;;;;27.48;57.53;99449.00;5110344;28;20758;-68
2022/08/03 06:52:58;;;;;;;3.77;2.50;;;;;;;27.58;58.03;99441.81;5110185;28;20260;-67
2022/08/03 06:55:25;;;;;;;2.30;1.63;;;;;;;27.83;58.11;99443.66;5110398;28;20207;-67
2022/08/03 06:57:52;;;;;;;1.70;1.60;;;;;;;28.01;54.84;99441.78;5109337;28;20235;-67
2022/08/03 07:00:19;;;;;;;1.87;1.50;;;;;;;28.27;53.61;99436.53;5110248;28;20209;-67
2022/08/03 07:02:48;;;;;;;1.90;1.80;;;;;;;28.55;52.89;99440.59;5109924;28;20203;-67
2022/08/03 07:05:15;;;;;;;1.67;1.60;;;;;;;28.75;52.55;99425.38;5110202;28;20230;-67
2022/08/03 07:07:42;;;;;;;1.47;1.40;;;;;;;29.12;52.22;99425.75;5109553;28;20206;-67
2022/08/03 07:10:10;;;;;;;1.77;1.67;;;;;;;29.36;51.24;99432.91;5109375;28;20202;-66
2022/08/03 07:12:38;;;;;;;1.58;1.50;;;;;;;29.56;50.33;99442.16;5109230;28;20558;-67
2022/08/03 07:15:06;;;;;;;2.75;1.50;;;;;;;29.83;49.81;99438.34;5110579;28;20203;-67
2022/08/03 07:17:35;;;;;;;1.40;1.40;;;;;;;30.01;48.76;99443.44;5109426;28;20206;-72
2022/08/03 07:20:06;;;;;;;1.48;1.48;;;;;;;30.13;47.21;99448.19;5108086;28;20669;-71
2022/08/03 07:22:33;;;;;;;1.30;1.30;;;;;;;30.15;46.89;99427.69;5106131;28;20259;-71
2022/08/03 07:25:00;;;;;;;2.05;1.95;;;;;;;30.44;48.40;99442.16;5106863;28;20366;-70
2022/08/03 07:27:28;;;;;;;1.88;1.88;;;;;;;30.84;48.92;99433.19;5104454;28;20206;-69
2022/08/03 07:29:55;;;;;;;1.70;1.60;;;;;;;31.07;47.05;99431.41;5109585;28;20212;-70
2022/08/03 07:32:22;;;;;;;1.73;1.48;;;;;;;31.35;49.00;99447.59;5103376;28;20243;-70
2022/08/03 07:34:49;;;;;;;22.23;3.40;;;;;;;31.51;45.91;99452.78;5103047;28;20214;-73
2022/08/03 07:37:17;;;;;;;1.88;1.58;;;;;;;31.64;48.21;99453.00;5107343;28;20586;-72
2022/08/03 07:39:44;;;;;;;1.80;1.70;;;;;;;31.76;44.96;99456.88;5107626;28;20238;-73
2022/08/03 07:42:11;;;;;;;1.90;1.80;;;;;;;31.89;45.10;99462.38;5101113;28;20679;-73
2022/08/03 07:44:38;;;;;;;2.30;2.20;;;;;;;31.76;46.21;99456.88;5105606;28;20214;-71
2022/08/03 07:47:05;;;;;;;2.28;2.20;;;;;;;31.80;44.61;99458.16;5109684;28;20208;-72
2022/08/03 07:49:32;;;;;;;2.70;2.60;;;;;;;31.15;45.70;99453.34;5109831;28;20199;-74
2022/08/03 07:54:45;;;;;;;3.15;2.25;;;;;;;30.95;50.03;99462.78;5109619;28;20201;-73
2022/08/03 07:57:12;;;;;;;2.10;2.10;;;;;;;30.94;49.09;99455.78;5108313;28;20222;-71
2022/08/03 07:59:39;;;;;;;2.67;2.58;;;;;;;31.16;49.59;99462.97;5108942;28;20219;-71
2022/08/03 08:02:07;;;;;;;2.28;2.17;;;;;;;31.44;47.73;99462.44;5109134;28;20234;-66
2022/08/03 08:04:33;;;;;;;2.53;2.35;;;;;;;31.55;48.13;99462.03;5109095;28;20217;-68
2022/08/03 08:07:00;;;;;;;2.40;2.20;;;;;;;31.61;46.46;99459.50;5107346;28;20239;-67
2022/08/03 08:09:27;;;;;;;9.07;2.53;;;;;;;31.69;46.88;99453.31;5103492;28;20207;-67
2022/08/03 08:11:55;;;;;;;3.03;2.83;;;;;;;31.83;45.96;99463.09;5104364;28;20207;-67
2022/08/03 08:14:22;;;;;;;2.40;2.30;;;;;;;31.74;45.25;99465.00;5109126;28;20674;-66
2022/08/03 08:16:49;;;;;;;6.38;2.55;;;;;;;31.74;46.75;99462.38;5107419;28;20202;-67
2022/08/03 08:19:16;;;;;;;3.05;2.55;;;;;;;31.86;46.66;99457.44;5107250;28;20223;-67
2022/08/03 08:21:43;;;;;;;2.22;1.98;;;;;;;31.82;44.96;99468.59;5099825;28;20199;-70
2022/08/03 08:24:10;;;;;;;2.88;2.78;;;;;;;31.76;45.49;99467.50;5103706;28;20221;-68
2022/08/03 08:26:37;;;;;;;2.55;2.45;;;;;;;32.05;45.09;99464.88;5107994;28;20202;-68
2022/08/03 08:29:05;;;;;;;4.95;2.72;;;;;;;32.33;44.61;99469.56;5111761;28;20199;-67
2022/08/03 08:31:32;;;;;;;3.10;3.00;;;;;;;32.18;45.10;99462.44;5111130;28;20199;-67
2022/08/03 08:34:04;;;;;;;3.65;3.55;;;;;;;31.96;45.09;99465.94;5110899;28;20206;-67
2022/08/03 08:36:31;;;;;;;4.05;3.45;;;;;;;31.65;45.41;99462.63;5110824;28;20202;-69
2022/08/03 08:38:58;;;;;;;2.50;2.40;;;;;;;31.88;46.19;99458.09;5111326;28;20219;-69
2022/08/03 08:41:24;;;;;;;4.75;4.35;;;;;;;31.88;45.50;99459.91;5111730;28;20206;-67
2022/08/03 08:43:51;;;;;;;3.88;3.58;;;;;;;31.97;45.45;99459.66;5110331;28;20693;-67
2022/08/03 08:46:20;;;;;;;3.17;3.08;;;;;;;31.90;46.10;99464.03;5112701;28;20211;-67
2022/08/03 08:48:49;;;;;;;3.25;3.10;;;;;;;31.99;45.00;99456.84;5112485;28;20203;-69
2022/08/03 08:51:19;;;;;;;3.10;2.90;;;;;;;31.96;45.86;99460.66;5112447;28;20210;-69
2022/08/03 08:53:49;;;;;;;3.58;3.17;;;;;;;32.23;45.80;99464.53;5112505;28;20203;-68
2022/08/03 08:56:17;;;;;;;2.88;2.67;;;;;;;32.53;46.24;99454.75;5111037;28;20217;-68
2022/08/03 08:58:49;;;;;;;3.65;2.78;;;;;;;32.76;43.04;99455.47;5110962;28;20222;-69
2022/08/03 09:01:19;;;;;;;3.25;3.15;;;;;;;32.82;44.52;99465.34;5111365;28;20203;-67
2022/08/03 09:03:46;;;;;;;3.25;2.97;;;;;;;32.35;44.43;99436.53;5111446;27;20286;-68
2022/08/03 09:06:14;;;;;;;2.92;2.83;;;;;;;32.54;45.06;99466.97;5110348;27;20234;-67
2022/08/03 09:08:41;;;;;;;4.65;2.75;;;;;;;32.62;42.09;99459.78;5105249;28;20198;-69
2022/08/03 09:11:08;;;;;;;2.67;2.58;;;;;;;32.93;41.81;99462.16;5104061;28;20213;-69
2022/08/03 09:13:35;;;;;;;4.43;2.85;;;;;;;33.05;42.07;99449.25;5106469;28;20658;-69
2022/08/03 09:16:13;;;;;;;2.30;2.20;;;;;;;33.17;41.36;99448.56;5110193;28;20263;-69
2022/08/03 09:18:43;;;;;;;2.10;2.00;;;;;;;33.17;43.16;99453.06;5110724;28;20756;-69
2022/08/03 09:21:18;;;;;;;3.10;2.80;;;;;;;33.32;42.83;99451.16;5110585;28;20217;-69
2022/08/03 09:23:46;;;;;;;2.78;2.67;;;;;;;33.47;42.32;99448.44;5111397;28;20558;-68
2022/08/03 09:26:19;;;;;;;2.85;2.75;;;;;;;33.50;40.75;99448.88;5110631;28;20651;-67
2022/08/03 09:28:46;;;;;;;2.95;2.67;;;;;;;33.36;41.83;99447.09;5111364;28;20210;-77
2022/08/03 09:31:13;;;;;;;3.17;3.08;;;;;;;32.90;42.05;99441.31;5110060;28;20586;-76
2022/08/03 09:33:49;;;;;;;2.53;2.42;;;;;;;32.65;42.77;99437.34;5111127;28;20203;-73
2022/08/03 09:36:34;;;;;;;2.60;2.50;;;;;;;32.47;42.08;99442.22;5106677;28;20203;-74
2022/08/03 09:39:05;;;;;;;2.75;2.50;;;;;;;32.24;42.72;99444.97;5104602;28;20610;-66
2022/08/03 09:41:32;;;;;;;2.47;2.38;;;;;;;32.38;42.71;99440.63;5109639;28;20203;-68
2022/08/03 09:43:59;;;;;;;2.97;2.88;;;;;;;32.60;43.22;99434.44;5110076;28;20280;-67
2022/08/03 09:46:27;;;;;;;3.28;3.08;;;;;;;32.66;43.45;99439.81;5103900;28;20203;-68
2022/08/03 09:49:09;;;;;;;2.55;2.45;;;;;;;32.78;42.28;99434.84;5109270;28;20681;-68
2022/08/03 09:51:36;;;;;;;2.47;2.30;;;;;;;32.77;42.68;99433.19;5110504;28;20206;-68
2022/08/03 09:54:03;;;;;;;2.25;2.05;;;;;;;32.74;42.50;99433.56;5108591;28;20206;-68
2022/08/03 09:56:44;;;;;;;2.42;2.28;;;;;;;32.86;41.82;99428.59;5110747;28;20738;-68
2022/08/03 09:59:13;;;;;;;3.67;2.30;;;;;;;33.01;41.88;99427.53;5111184;28;20222;-68
2022/08/03 10:01:41;;;;;;;2.25;2.15;;;;;;;33.07;43.01;99413.50;5111506;28;20205;-67
2022/08/03 10:04:15;;;;;;;2.67;2.58;;;;;;;33.18;41.54;99426.28;5110372;28;20222;-66
2022/08/03 10:06:44;;;;;;;2.35;2.25;;;;;;;33.19;42.80;99430.59;5105900;28;20673;-68
2022/08/03 10:09:12;;;;;;;2.35;2.25;;;;;;;32.89;41.81;99418.44;5107158;28;20199;-66
2022/08/03 10:11:40;;;;;;;2.60;2.50;;;;;;;32.83;42.17;99419.16;5109720;28;20209;-67
2022/08/03 10:14:09;;;;;;;2.38;2.17;;;;;;;32.61;41.08;99405.03;5110767;28;20195;-67
2022/08/03 10:16:37;;;;;;;2.38;2.08;;;;;;;32.39;41.93;99427.19;5111026;28;20213;-67
2022/08/03 10:19:07;;;;;;;2.78;2.58;;;;;;;32.41;41.77;99419.88;5110692;28;20218;-67
2022/08/03 10:21:37;;;;;;;1.90;1.80;;;;;;;32.08;42.19;99408.84;5108611;28;20201;-68
2022/08/03 10:24:07;;;;;;;2.95;2.85;;;;;;;31.93;42.49;99413.28;5108986;28;20199;-67
2022/08/03 10:26:36;;;;;;;2.13;2.03;;;;;;;32.03;42.46;99416.47;5108607;28;20199;-67
2022/08/03 10:29:06;;;;;;;2.20;2.10;;;;;;;32.17;43.09;99409.56;5107958;28;20199;-66
2022/08/03 10:31:39;;;;;;;2.42;2.33;;;;;;;32.12;42.36;99410.09;5106006;28;20198;-72
2022/08/03 10:34:11;;;;;;;1.95;1.88;;;;;;;32.28;42.24;99411.75;5108996;28;20644;-72
2022/08/03 10:36:41;;;;;;;2.35;2.25;;;;;;;31.85;43.60;99413.38;5109628;28;20202;-73
2022/08/03 10:39:10;;;;;;;2.72;2.63;;;;;;;31.69;43.84;99402.94;5109550;28;20214;-72
2022/08/03 10:41:41;;;;;;;6.65;3.67;;;;;;;31.62;45.53;99409.97;5109941;28;20705;-73
2022/08/03 10:44:12;;;;;;;3.00;2.75;;;;;;;31.78;45.69;99399.19;5110858;28;20303;-71
2022/08/03 10:46:41;;;;;;;2.40;2.30;;;;;;;32.14;45.11;99401.97;5108821;28;20650;-69
2022/08/03 10:49:08;;;;;;;2.75;2.65;;;;;;;32.14;44.73;99409.94;5110238;28;20203;-67
2022/08/03 10:51:36;;;;;;;2.58;2.47;;;;;;;32.24;44.62;99398.03;5109303;28;20203;-70
2022/08/03 10:54:04;;;;;;;4.22;4.03;;;;;;;32.42;42.58;99400.28;5107613;28;20213;-70
2022/08/03 10:59:58;;;;;;;4.38;2.75;;;;;;;32.93;41.44;99392.28;5110339;28;20598;-75
2022/08/03 11:03:13;;;;;;;2.60;2.40;;;;;;;32.87;42.39;99385.09;5108569;28;20596;-73
2022/08/03 11:05:41;;;;;;;7.45;7.15;;;;;;;33.00;41.99;99383.38;5075158;28;20226;-69
2022/08/03 11:08:26;;;;;;;3.03;2.80;;;;;;;33.37;41.41;99384.16;5110831;28;20194;-68
2022/08/03 11:10:58;;;;;;;2.25;2.15;;;;;;;33.31;39.92;99377.78;5108931;28;20233;-69
2022/08/03 11:13:27;;;;;;;4.38;3.22;;;;;;;33.16;41.04;99367.22;5103326;28;20210;-68
2022/08/03 11:15:57;;;;;;;2.88;2.75;;;;;;;33.07;40.76;99367.50;5108947;28;20563;-70
2022/08/03 11:18:25;;;;;;;4.45;4.25;;;;;;;33.18;40.61;99362.53;5109881;28;20198;-69
2022/08/03 11:20:53;;;;;;;1.80;1.80;;;;;;;33.09;39.85;99365.50;5108559;28;20215;-67
2022/08/03 11:23:41;;;;;;;2.80;1.90;;;;;;;33.12;39.32;99339.38;5109018;28;20214;-70
2022/08/03 11:26:17;;;;;;;1.95;1.85;;;;;;;33.40;37.51;99357.19;5107689;28;20202;-69
2022/08/03 11:28:45;;;;;;;1.85;1.75;;;;;;;33.50;38.80;99355.00;5109711;28;20198;-68
2022/08/03 11:31:47;;;;;;;2.58;2.47;;;;;;;33.34;38.82;99352.66;5108475;28;20256;-70
2022/08/03 11:34:16;;;;;;;2.22;2.13;;;;;;;33.06;39.44;99350.75;5108579;28;20658;-70
2022/08/03 11:37:22;;;;;;;2.13;2.03;;;;;;;33.12;39.12;99339.38;5108860;28;20210;-70
2022/08/03 11:39:53;;;;;;;2.30;2.20;;;;;;;33.09;40.83;99328.31;5099537;28;20222;-70
2022/08/03 11:42:42;;;;;;;1.75;1.75;;;;;;;33.26;40.07;99343.78;5108732;28;20197;-71
2022/08/03 11:45:10;;;;;;;2.35;2.15;;;;;;;33.21;39.77;99343.56;5109977;28;20694;-70
2022/08/03 11:47:39;;;;;;;1.80;1.80;;;;;;;33.43;39.87;99336.34;5109170;28;20203;-71
2022/08/03 11:50:06;;;;;;;2.60;2.40;;;;;;;33.63;39.05;99339.19;5109741;28;20194;-70
2022/08/03 11:52:40;;;;;;;1.95;1.88;;;;;;;33.56;38.81;99330.31;5109774;28;20551;-70
2022/08/03 11:55:15;;;;;;;3.65;3.55;;;;;;;33.37;39.53;99338.97;5108921;28;20199;-70
2022/08/03 11:57:45;;;;;;;1.90;1.80;;;;;;;33.37;38.64;99336.31;5108745;28;20209;-68